sensor_id;sensor_type;location;lat;lon;timestamp;temperature;humidity
40323;DHT22;26030;51.164;17.100;2023-05-15T00:02:40;23.40;57.50
40323;DHT22;26030;51.164;17.100;2023-05-15T00:07:47;23.30;57.70
40323;DHT22;26030;51.164;17.100;2023-05-15T00:12:51;23.30;57.60
40323;DHT22;26030;51.164;17.100;2023-05-15T00:17:55;23.30;57.60
40323;DHT22;26030;51.164;17.100;2023-05-15T00:23:00;23.40;57.60
40323;DHT22;26030;51.164;17.100;2023-05-15T00:28:04;23.30;57.50
40323;DHT22;26030;51.164;17.100;2023-05-15T00:33:08;23.30;57.60
40323;DHT22;26030;51.164;17.100;2023-05-15T00:38:12;23.40;58.10
40323;DHT22;26030;51.164;17.100;2023-05-15T00:43:16;23.40;57.40
40323;DHT22;26030;51.164;17.100;2023-05-15T00:48:21;23.50;57.50
40323;DHT22;26030;51.164;17.100;2023-05-15T00:53:28;23.40;57.30
40323;DHT22;26030;51.164;17.100;2023-05-15T00:58:32;23.30;57.60
40323;DHT22;26030;51.164;17.100;2023-05-15T01:03:37;23.30;57.70
40323;DHT22;26030;51.164;17.100;2023-05-15T01:08:42;23.20;58.30
40323;DHT22;26030;51.164;17.100;2023-05-15T01:13:48;23.20;58.00
40323;DHT22;26030;51.164;17.100;2023-05-15T01:18:53;23.20;58.00
40323;DHT22;26030;51.164;17.100;2023-05-15T01:29:53;23.20;58.00
40323;DHT22;26030;51.164;17.100;2023-05-15T01:35:12;23.20;57.90
40323;DHT22;26030;51.164;17.100;2023-05-15T01:40:20;23.10;58.50
40323;DHT22;26030;51.164;17.100;2023-05-15T01:45:27;23.10;58.20
40323;DHT22;26030;51.164;17.100;2023-05-15T01:50:32;23.10;57.90
40323;DHT22;26030;51.164;17.100;2023-05-15T01:55:38;23.10;58.20
40323;DHT22;26030;51.164;17.100;2023-05-15T02:00:43;23.10;58.50
40323;DHT22;26030;51.164;17.100;2023-05-15T02:05:50;23.10;58.00
40323;DHT22;26030;51.164;17.100;2023-05-15T02:10:56;23.10;58.40
40323;DHT22;26030;51.164;17.100;2023-05-15T02:16:01;23.10;57.70
40323;DHT22;26030;51.164;17.100;2023-05-15T02:21:06;23.10;58.10
40323;DHT22;26030;51.164;17.100;2023-05-15T02:31:37;23.10;58.00
40323;DHT22;26030;51.164;17.100;2023-05-15T02:36:43;23.10;58.00
40323;DHT22;26030;51.164;17.100;2023-05-15T02:41:52;23.10;58.20
40323;DHT22;26030;51.164;17.100;2023-05-15T02:46:58;23.10;58.30
40323;DHT22;26030;51.164;17.100;2023-05-15T02:52:03;23.10;57.90
40323;DHT22;26030;51.164;17.100;2023-05-15T02:57:08;23.10;57.80
40323;DHT22;26030;51.164;17.100;2023-05-15T03:02:12;23.00;57.90
40323;DHT22;26030;51.164;17.100;2023-05-15T03:07:16;23.10;58.40
40323;DHT22;26030;51.164;17.100;2023-05-15T03:12:20;23.00;58.10
40323;DHT22;26030;51.164;17.100;2023-05-15T03:17:24;23.00;58.20
40323;DHT22;26030;51.164;17.100;2023-05-15T03:22:29;23.00;58.10
40323;DHT22;26030;51.164;17.100;2023-05-15T03:27:33;23.00;58.10
40323;DHT22;26030;51.164;17.100;2023-05-15T03:32:37;23.00;58.40
40323;DHT22;26030;51.164;17.100;2023-05-15T03:37:42;23.00;58.50
40323;DHT22;26030;51.164;17.100;2023-05-15T03:42:46;22.90;58.20
40323;DHT22;26030;51.164;17.100;2023-05-15T03:47:50;23.00;58.40
40323;DHT22;26030;51.164;17.100;2023-05-15T03:52:55;23.00;58.10
40323;DHT22;26030;51.164;17.100;2023-05-15T03:57:59;22.90;58.20
40323;DHT22;26030;51.164;17.100;2023-05-15T04:03:03;23.00;58.20
40323;DHT22;26030;51.164;17.100;2023-05-15T04:08:08;22.90;58.10
40323;DHT22;26030;51.164;17.100;2023-05-15T04:13:13;22.90;58.30
40323;DHT22;26030;51.164;17.100;2023-05-15T04:18:17;22.90;58.70
40323;DHT22;26030;51.164;17.100;2023-05-15T04:23:21;22.90;58.20
40323;DHT22;26030;51.164;17.100;2023-05-15T04:28:26;22.90;58.10
40323;DHT22;26030;51.164;17.100;2023-05-15T04:33:32;22.90;58.20
40323;DHT22;26030;51.164;17.100;2023-05-15T04:38:36;22.90;58.50
40323;DHT22;26030;51.164;17.100;2023-05-15T04:43:40;22.90;58.20
40323;DHT22;26030;51.164;17.100;2023-05-15T04:48:45;22.80;58.50
40323;DHT22;26030;51.164;17.100;2023-05-15T04:53:49;22.80;58.20
40323;DHT22;26030;51.164;17.100;2023-05-15T04:58:53;22.80;58.20
40323;DHT22;26030;51.164;17.100;2023-05-15T05:03:57;22.90;58.20
40323;DHT22;26030;51.164;17.100;2023-05-15T05:09:01;22.80;58.20
40323;DHT22;26030;51.164;17.100;2023-05-15T05:14:05;22.80;58.10
40323;DHT22;26030;51.164;17.100;2023-05-15T05:19:10;22.90;58.20
40323;DHT22;26030;51.164;17.100;2023-05-15T05:24:15;22.80;57.60
40323;DHT22;26030;51.164;17.100;2023-05-15T05:29:19;22.90;58.10
40323;DHT22;26030;51.164;17.100;2023-05-15T05:34:23;22.80;58.10
40323;DHT22;26030;51.164;17.100;2023-05-15T05:39:27;22.80;58.80
40323;DHT22;26030;51.164;17.100;2023-05-15T05:44:31;22.80;58.60
40323;DHT22;26030;51.164;17.100;2023-05-15T05:49:37;22.70;58.40
40323;DHT22;26030;51.164;17.100;2023-05-15T05:54:42;22.70;58.40
40323;DHT22;26030;51.164;17.100;2023-05-15T05:59:49;22.70;58.30
40323;DHT22;26030;51.164;17.100;2023-05-15T06:04:53;22.80;59.20
40323;DHT22;26030;51.164;17.100;2023-05-15T06:09:57;22.80;59.10
40323;DHT22;26030;51.164;17.100;2023-05-15T06:15:01;22.80;58.90
40323;DHT22;26030;51.164;17.100;2023-05-15T06:20:05;22.80;58.60
40323;DHT22;26030;51.164;17.100;2023-05-15T06:25:11;22.70;58.90
40323;DHT22;26030;51.164;17.100;2023-05-15T06:30:17;22.80;59.30
40323;DHT22;26030;51.164;17.100;2023-05-15T06:35:21;22.90;59.30
40323;DHT22;26030;51.164;17.100;2023-05-15T06:40:26;22.90;59.50
40323;DHT22;26030;51.164;17.100;2023-05-15T06:45:31;23.00;59.30
40323;DHT22;26030;51.164;17.100;2023-05-15T06:50:35;23.00;59.10
40323;DHT22;26030;51.164;17.100;2023-05-15T06:55:39;23.10;59.20
40323;DHT22;26030;51.164;17.100;2023-05-15T07:00:43;23.10;59.60
40323;DHT22;26030;51.164;17.100;2023-05-15T07:05:47;23.00;59.70
40323;DHT22;26030;51.164;17.100;2023-05-15T07:10:51;23.00;59.80
40323;DHT22;26030;51.164;17.100;2023-05-15T07:15:56;23.20;59.50
40323;DHT22;26030;51.164;17.100;2023-05-15T07:21:00;23.20;59.80
40323;DHT22;26030;51.164;17.100;2023-05-15T07:26:04;23.10;59.70
40323;DHT22;26030;51.164;17.100;2023-05-15T07:31:11;22.90;59.80
40323;DHT22;26030;51.164;17.100;2023-05-15T07:36:15;22.90;59.70
40323;DHT22;26030;51.164;17.100;2023-05-15T07:41:19;22.90;59.70
40323;DHT22;26030;51.164;17.100;2023-05-15T07:46:23;22.90;59.80
40323;DHT22;26030;51.164;17.100;2023-05-15T07:51:28;22.90;60.00
40323;DHT22;26030;51.164;17.100;2023-05-15T07:56:32;22.80;59.80
40323;DHT22;26030;51.164;17.100;2023-05-15T08:01:36;23.00;59.50
40323;DHT22;26030;51.164;17.100;2023-05-15T08:06:41;23.00;59.20
40323;DHT22;26030;51.164;17.100;2023-05-15T08:11:46;23.10;59.50
40323;DHT22;26030;51.164;17.100;2023-05-15T08:16:50;23.10;59.00
40323;DHT22;26030;51.164;17.100;2023-05-15T08:21:54;23.20;58.80
40323;DHT22;26030;51.164;17.100;2023-05-15T08:26:58;23.00;59.00
40323;DHT22;26030;51.164;17.100;2023-05-15T08:32:03;23.00;59.10
40323;DHT22;26030;51.164;17.100;2023-05-15T08:37:08;23.00;58.90
40323;DHT22;26030;51.164;17.100;2023-05-15T08:47:25;23.00;59.00
40323;DHT22;26030;51.164;17.100;2023-05-15T08:52:32;23.00;59.00
40323;DHT22;26030;51.164;17.100;2023-05-15T08:57:37;22.90;59.00
40323;DHT22;26030;51.164;17.100;2023-05-15T09:02:42;23.10;58.90
40323;DHT22;26030;51.164;17.100;2023-05-15T09:07:46;23.00;59.00
40323;DHT22;26030;51.164;17.100;2023-05-15T09:12:51;23.00;58.90
40323;DHT22;26030;51.164;17.100;2023-05-15T09:17:57;22.90;58.60
40323;DHT22;26030;51.164;17.100;2023-05-15T09:23:02;22.90;58.60
40323;DHT22;26030;51.164;17.100;2023-05-15T09:28:10;22.90;58.60
40323;DHT22;26030;51.164;17.100;2023-05-15T09:33:35;22.90;58.60
40323;DHT22;26030;51.164;17.100;2023-05-15T09:38:41;22.90;58.90
40323;DHT22;26030;51.164;17.100;2023-05-15T09:43:45;22.90;58.40
40323;DHT22;26030;51.164;17.100;2023-05-15T09:48:53;22.90;58.30
40323;DHT22;26030;51.164;17.100;2023-05-15T09:53:58;22.90;58.70
40323;DHT22;26030;51.164;17.100;2023-05-15T09:59:02;22.90;58.40
40323;DHT22;26030;51.164;17.100;2023-05-15T10:04:06;23.00;58.50
40323;DHT22;26030;51.164;17.100;2023-05-15T10:09:11;22.90;58.50
40323;DHT22;26030;51.164;17.100;2023-05-15T10:14:16;22.90;58.30
40323;DHT22;26030;51.164;17.100;2023-05-15T10:19:22;23.00;58.30
40323;DHT22;26030;51.164;17.100;2023-05-15T10:24:29;22.90;58.30
40323;DHT22;26030;51.164;17.100;2023-05-15T10:29:35;22.90;58.40
40323;DHT22;26030;51.164;17.100;2023-05-15T10:34:40;22.90;58.60
40323;DHT22;26030;51.164;17.100;2023-05-15T10:39:46;22.90;58.20
40323;DHT22;26030;51.164;17.100;2023-05-15T10:44:51;22.90;58.00
40323;DHT22;26030;51.164;17.100;2023-05-15T10:49:56;22.90;58.20
40323;DHT22;26030;51.164;17.100;2023-05-15T10:55:01;22.90;58.10
40323;DHT22;26030;51.164;17.100;2023-05-15T11:05:26;22.90;58.00
40323;DHT22;26030;51.164;17.100;2023-05-15T11:15:44;23.00;58.20
40323;DHT22;26030;51.164;17.100;2023-05-15T11:25:56;23.00;57.60
40323;DHT22;26030;51.164;17.100;2023-05-15T11:31:04;23.00;57.60
40323;DHT22;26030;51.164;17.100;2023-05-15T11:36:09;23.00;57.50
40323;DHT22;26030;51.164;17.100;2023-05-15T11:41:18;23.10;57.40
40323;DHT22;26030;51.164;17.100;2023-05-15T11:46:24;23.10;57.20
40323;DHT22;26030;51.164;17.100;2023-05-15T11:51:28;23.10;57.50
40323;DHT22;26030;51.164;17.100;2023-05-15T11:56:32;23.20;57.00
40323;DHT22;26030;51.164;17.100;2023-05-15T12:01:43;23.20;57.00
40323;DHT22;26030;51.164;17.100;2023-05-15T12:06:50;23.20;56.90
40323;DHT22;26030;51.164;17.100;2023-05-15T12:11:54;23.10;57.00
40323;DHT22;26030;51.164;17.100;2023-05-15T12:16:59;23.10;56.80
40323;DHT22;26030;51.164;17.100;2023-05-15T12:22:07;23.10;56.90
40323;DHT22;26030;51.164;17.100;2023-05-15T12:27:11;23.10;57.20
40323;DHT22;26030;51.164;17.100;2023-05-15T12:32:16;23.20;56.90
40323;DHT22;26030;51.164;17.100;2023-05-15T12:37:20;23.20;57.10
40323;DHT22;26030;51.164;17.100;2023-05-15T12:42:24;23.20;56.60
40323;DHT22;26030;51.164;17.100;2023-05-15T12:47:29;23.20;56.50
40323;DHT22;26030;51.164;17.100;2023-05-15T12:52:33;23.30;56.50
40323;DHT22;26030;51.164;17.100;2023-05-15T12:57:41;23.30;56.60
40323;DHT22;26030;51.164;17.100;2023-05-15T13:02:45;23.30;56.50
40323;DHT22;26030;51.164;17.100;2023-05-15T13:07:52;23.40;56.30
40323;DHT22;26030;51.164;17.100;2023-05-15T13:12:57;23.30;56.50
40323;DHT22;26030;51.164;17.100;2023-05-15T13:18:03;23.30;56.30
40323;DHT22;26030;51.164;17.100;2023-05-15T13:23:10;23.20;56.30
40323;DHT22;26030;51.164;17.100;2023-05-15T13:28:17;23.20;56.30
40323;DHT22;26030;51.164;17.100;2023-05-15T13:33:21;23.30;56.30
40323;DHT22;26030;51.164;17.100;2023-05-15T13:38:25;23.20;56.60
40323;DHT22;26030;51.164;17.100;2023-05-15T13:43:29;23.30;56.60
40323;DHT22;26030;51.164;17.100;2023-05-15T13:48:33;23.30;56.50
40323;DHT22;26030;51.164;17.100;2023-05-15T13:53:37;23.20;56.70
40323;DHT22;26030;51.164;17.100;2023-05-15T13:58:42;23.20;56.30
40323;DHT22;26030;51.164;17.100;2023-05-15T14:03:46;23.20;56.40
40323;DHT22;26030;51.164;17.100;2023-05-15T14:08:50;23.20;56.40
40323;DHT22;26030;51.164;17.100;2023-05-15T14:13:54;23.20;56.60
40323;DHT22;26030;51.164;17.100;2023-05-15T14:18:58;23.20;56.70
40323;DHT22;26030;51.164;17.100;2023-05-15T14:24:02;23.10;56.90
40323;DHT22;26030;51.164;17.100;2023-05-15T14:29:07;23.20;56.60
40323;DHT22;26030;51.164;17.100;2023-05-15T14:34:11;23.20;56.50
40323;DHT22;26030;51.164;17.100;2023-05-15T14:39:16;23.20;56.90
40323;DHT22;26030;51.164;17.100;2023-05-15T14:44:21;23.20;56.60
40323;DHT22;26030;51.164;17.100;2023-05-15T14:49:25;23.10;57.30
40323;DHT22;26030;51.164;17.100;2023-05-15T14:54:29;23.20;57.60
40323;DHT22;26030;51.164;17.100;2023-05-15T14:59:33;23.30;57.60
40323;DHT22;26030;51.164;17.100;2023-05-15T15:04:37;23.50;58.00
40323;DHT22;26030;51.164;17.100;2023-05-15T15:09:43;23.40;59.50
40323;DHT22;26030;51.164;17.100;2023-05-15T15:14:47;23.50;62.90
40323;DHT22;26030;51.164;17.100;2023-05-15T15:19:51;23.40;64.80
40323;DHT22;26030;51.164;17.100;2023-05-15T15:24:55;23.50;65.00
40323;DHT22;26030;51.164;17.100;2023-05-15T15:30:03;23.50;62.90
40323;DHT22;26030;51.164;17.100;2023-05-15T15:35:08;23.60;62.30
40323;DHT22;26030;51.164;17.100;2023-05-15T15:40:12;23.50;62.70
40323;DHT22;26030;51.164;17.100;2023-05-15T15:45:16;23.40;61.70
40323;DHT22;26030;51.164;17.100;2023-05-15T15:50:21;23.40;61.50
40323;DHT22;26030;51.164;17.100;2023-05-15T15:55:25;23.50;61.20
40323;DHT22;26030;51.164;17.100;2023-05-15T16:00:29;23.60;62.20
40323;DHT22;26030;51.164;17.100;2023-05-15T16:05:34;23.50;62.10
40323;DHT22;26030;51.164;17.100;2023-05-15T16:10:44;23.60;61.30
40323;DHT22;26030;51.164;17.100;2023-05-15T16:15:51;23.50;61.50
40323;DHT22;26030;51.164;17.100;2023-05-15T16:20:55;23.30;60.90
40323;DHT22;26030;51.164;17.100;2023-05-15T16:25:59;23.20;60.30
40323;DHT22;26030;51.164;17.100;2023-05-15T16:31:04;23.20;59.50
40323;DHT22;26030;51.164;17.100;2023-05-15T16:36:08;23.20;59.50
40323;DHT22;26030;51.164;17.100;2023-05-15T16:41:12;23.10;59.80
40323;DHT22;26030;51.164;17.100;2023-05-15T16:46:17;23.10;59.50
40323;DHT22;26030;51.164;17.100;2023-05-15T16:51:21;23.20;59.20
40323;DHT22;26030;51.164;17.100;2023-05-15T16:56:26;23.30;59.60
40323;DHT22;26030;51.164;17.100;2023-05-15T17:01:30;23.30;59.20
40323;DHT22;26030;51.164;17.100;2023-05-15T17:06:34;23.20;59.70
40323;DHT22;26030;51.164;17.100;2023-05-15T17:11:38;23.40;60.50
40323;DHT22;26030;51.164;17.100;2023-05-15T17:16:42;23.70;59.70
40323;DHT22;26030;51.164;17.100;2023-05-15T17:21:48;23.60;60.00
40323;DHT22;26030;51.164;17.100;2023-05-15T17:26:52;23.50;60.00
40323;DHT22;26030;51.164;17.100;2023-05-15T17:31:56;23.50;61.30
40323;DHT22;26030;51.164;17.100;2023-05-15T17:37:00;23.50;60.80
40323;DHT22;26030;51.164;17.100;2023-05-15T17:42:04;23.40;60.90
40323;DHT22;26030;51.164;17.100;2023-05-15T17:47:08;23.50;60.90
40323;DHT22;26030;51.164;17.100;2023-05-15T17:52:13;23.50;61.50
40323;DHT22;26030;51.164;17.100;2023-05-15T17:57:17;23.50;61.30
40323;DHT22;26030;51.164;17.100;2023-05-15T18:02:21;23.40;61.90
40323;DHT22;26030;51.164;17.100;2023-05-15T18:07:25;23.30;61.20
40323;DHT22;26030;51.164;17.100;2023-05-15T18:12:29;23.40;62.00
40323;DHT22;26030;51.164;17.100;2023-05-15T18:17:33;23.40;61.30
40323;DHT22;26030;51.164;17.100;2023-05-15T18:22:37;23.50;61.10
40323;DHT22;26030;51.164;17.100;2023-05-15T18:27:42;23.40;60.90
40323;DHT22;26030;51.164;17.100;2023-05-15T18:32:47;23.50;61.20
40323;DHT22;26030;51.164;17.100;2023-05-15T18:37:51;23.50;60.70
40323;DHT22;26030;51.164;17.100;2023-05-15T18:42:55;23.50;60.50
40323;DHT22;26030;51.164;17.100;2023-05-15T18:48:00;23.50;60.90
40323;DHT22;26030;51.164;17.100;2023-05-15T18:53:04;23.40;60.80
40323;DHT22;26030;51.164;17.100;2023-05-15T18:58:08;23.40;60.20
40323;DHT22;26030;51.164;17.100;2023-05-15T19:03:13;23.40;60.80
40323;DHT22;26030;51.164;17.100;2023-05-15T19:08:18;23.50;60.50
40323;DHT22;26030;51.164;17.100;2023-05-15T19:13:22;23.40;60.40
40323;DHT22;26030;51.164;17.100;2023-05-15T19:18:26;23.50;60.00
40323;DHT22;26030;51.164;17.100;2023-05-15T19:23:30;23.60;59.80
40323;DHT22;26030;51.164;17.100;2023-05-15T19:28:34;23.70;59.40
40323;DHT22;26030;51.164;17.100;2023-05-15T19:33:39;23.60;59.60
40323;DHT22;26030;51.164;17.100;2023-05-15T19:38:43;23.50;60.00
40323;DHT22;26030;51.164;17.100;2023-05-15T19:43:47;23.50;60.30
40323;DHT22;26030;51.164;17.100;2023-05-15T19:48:53;23.50;60.60
40323;DHT22;26030;51.164;17.100;2023-05-15T19:53:58;23.50;60.10
40323;DHT22;26030;51.164;17.100;2023-05-15T19:59:04;23.60;60.50
40323;DHT22;26030;51.164;17.100;2023-05-15T20:04:08;23.40;60.30
40323;DHT22;26030;51.164;17.100;2023-05-15T20:09:16;23.40;60.60
40323;DHT22;26030;51.164;17.100;2023-05-15T20:14:20;23.40;60.80
40323;DHT22;26030;51.164;17.100;2023-05-15T20:19:24;23.40;61.20
40323;DHT22;26030;51.164;17.100;2023-05-15T20:24:30;23.40;61.60
40323;DHT22;26030;51.164;17.100;2023-05-15T20:29:34;23.40;61.10
40323;DHT22;26030;51.164;17.100;2023-05-15T20:34:39;23.40;61.00
40323;DHT22;26030;51.164;17.100;2023-05-15T20:39:45;23.40;60.90
40323;DHT22;26030;51.164;17.100;2023-05-15T20:44:49;23.50;61.50
40323;DHT22;26030;51.164;17.100;2023-05-15T20:49:54;23.50;60.40
40323;DHT22;26030;51.164;17.100;2023-05-15T20:54:58;23.40;60.70
40323;DHT22;26030;51.164;17.100;2023-05-15T21:00:02;23.30;60.70
40323;DHT22;26030;51.164;17.100;2023-05-15T21:05:07;23.40;60.00
40323;DHT22;26030;51.164;17.100;2023-05-15T21:10:12;23.70;60.70
40323;DHT22;26030;51.164;17.100;2023-05-15T21:15:16;23.60;62.50
40323;DHT22;26030;51.164;17.100;2023-05-15T21:20:20;23.60;62.40
40323;DHT22;26030;51.164;17.100;2023-05-15T21:25:24;23.30;62.20
40323;DHT22;26030;51.164;17.100;2023-05-15T21:30:29;23.30;62.20
40323;DHT22;26030;51.164;17.100;2023-05-15T21:35:34;23.30;62.00
40323;DHT22;26030;51.164;17.100;2023-05-15T21:40:38;23.20;61.60
40323;DHT22;26030;51.164;17.100;2023-05-15T21:45:43;23.20;62.30
40323;DHT22;26030;51.164;17.100;2023-05-15T21:50:47;23.20;62.60
40323;DHT22;26030;51.164;17.100;2023-05-15T21:56:09;23.30;62.00
40323;DHT22;26030;51.164;17.100;2023-05-15T22:01:14;23.20;61.90
40323;DHT22;26030;51.164;17.100;2023-05-15T22:06:19;23.20;61.40
40323;DHT22;26030;51.164;17.100;2023-05-15T22:11:24;23.20;60.90
40323;DHT22;26030;51.164;17.100;2023-05-15T22:16:28;23.20;61.30
40323;DHT22;26030;51.164;17.100;2023-05-15T22:21:32;23.10;60.80
40323;DHT22;26030;51.164;17.100;2023-05-15T22:26:36;23.10;60.90
40323;DHT22;26030;51.164;17.100;2023-05-15T22:31:41;23.10;61.70
40323;DHT22;26030;51.164;17.100;2023-05-15T22:36:45;23.10;61.30
40323;DHT22;26030;51.164;17.100;2023-05-15T22:41:49;23.10;61.10
40323;DHT22;26030;51.164;17.100;2023-05-15T22:46:53;23.00;60.90
40323;DHT22;26030;51.164;17.100;2023-05-15T22:51:57;23.10;60.80
40323;DHT22;26030;51.164;17.100;2023-05-15T22:57:01;23.00;60.90
40323;DHT22;26030;51.164;17.100;2023-05-15T23:02:05;23.00;61.30
40323;DHT22;26030;51.164;17.100;2023-05-15T23:07:09;23.10;60.50
40323;DHT22;26030;51.164;17.100;2023-05-15T23:12:13;23.10;60.10
40323;DHT22;26030;51.164;17.100;2023-05-15T23:17:17;23.10;59.70
40323;DHT22;26030;51.164;17.100;2023-05-15T23:22:21;23.10;59.80
40323;DHT22;26030;51.164;17.100;2023-05-15T23:27:25;23.00;59.90
40323;DHT22;26030;51.164;17.100;2023-05-15T23:32:29;22.90;59.80
40323;DHT22;26030;51.164;17.100;2023-05-15T23:37:34;22.90;59.90
40323;DHT22;26030;51.164;17.100;2023-05-15T23:42:38;22.80;60.30
40323;DHT22;26030;51.164;17.100;2023-05-15T23:47:42;22.80;60.30
40323;DHT22;26030;51.164;17.100;2023-05-15T23:52:46;22.70;60.20
40323;DHT22;26030;51.164;17.100;2023-05-15T23:57:50;22.70;60.30
